sensor_id;sensor_type;location;lat;lon;timestamp;P1;durP1;ratioP1;P2;durP2;ratioP2
56770;SDS011;42641;59.794;17.616;2022-08-20T00:01:05;14.32;;;12.75;;
56770;SDS011;42641;59.794;17.616;2022-08-20T00:03:34;16.20;;;13.07;;
56770;SDS011;42641;59.794;17.616;2022-08-20T00:06:05;14.88;;;13.02;;
56770;SDS011;42641;59.794;17.616;2022-08-20T00:08:38;17.98;;;13.10;;
56770;SDS011;42641;59.794;17.616;2022-08-20T00:11:06;17.70;;;12.77;;
56770;SDS011;42641;59.794;17.616;2022-08-20T00:13:35;14.60;;;11.65;;
56770;SDS011;42641;59.794;17.616;2022-08-20T00:16:05;13.30;;;12.00;;
56770;SDS011;42641;59.794;17.616;2022-08-20T00:18:32;15.00;;;12.63;;
56770;SDS011;42641;59.794;17.616;2022-08-20T00:21:02;16.77;;;12.27;;
56770;SDS011;42641;59.794;17.616;2022-08-20T00:23:30;16.20;;;12.73;;
56770;SDS011;42641;59.794;17.616;2022-08-20T00:25:57;13.32;;;11.93;;
56770;SDS011;42641;59.794;17.616;2022-08-20T00:28:23;20.95;;;12.50;;
56770;SDS011;42641;59.794;17.616;2022-08-20T00:30:49;13.20;;;11.52;;
56770;SDS011;42641;59.794;17.616;2022-08-20T00:33:17;13.18;;;11.10;;
56770;SDS011;42641;59.794;17.616;2022-08-20T00:35:46;16.15;;;11.98;;
56770;SDS011;42641;59.794;17.616;2022-08-20T00:38:17;12.68;;;11.00;;
56770;SDS011;42641;59.794;17.616;2022-08-20T00:40:54;13.35;;;11.90;;
56770;SDS011;42641;59.794;17.616;2022-08-20T00:43:25;16.38;;;11.60;;
56770;SDS011;42641;59.794;17.616;2022-08-20T00:45:58;14.43;;;11.30;;
56770;SDS011;42641;59.794;17.616;2022-08-20T00:48:26;14.35;;;10.77;;
56770;SDS011;42641;59.794;17.616;2022-08-20T00:51:11;12.85;;;11.48;;
56770;SDS011;42641;59.794;17.616;2022-08-20T00:54:08;13.90;;;10.30;;
56770;SDS011;42641;59.794;17.616;2022-08-20T00:56:44;13.68;;;10.60;;
56770;SDS011;42641;59.794;17.616;2022-08-20T00:59:15;12.98;;;10.52;;
56770;SDS011;42641;59.794;17.616;2022-08-20T01:01:47;11.38;;;9.85;;
56770;SDS011;42641;59.794;17.616;2022-08-20T01:04:14;14.95;;;9.77;;
56770;SDS011;42641;59.794;17.616;2022-08-20T01:06:40;12.77;;;9.65;;
56770;SDS011;42641;59.794;17.616;2022-08-20T01:09:07;12.63;;;9.90;;
56770;SDS011;42641;59.794;17.616;2022-08-20T01:11:33;11.52;;;9.63;;
56770;SDS011;42641;59.794;17.616;2022-08-20T01:14:01;13.07;;;10.00;;
56770;SDS011;42641;59.794;17.616;2022-08-20T01:17:00;11.20;;;8.98;;
56770;SDS011;42641;59.794;17.616;2022-08-20T01:19:44;13.07;;;9.63;;
56770;SDS011;42641;59.794;17.616;2022-08-20T01:22:16;16.67;;;9.98;;
56770;SDS011;42641;59.794;17.616;2022-08-20T01:28:13;11.20;;;9.70;;
56770;SDS011;42641;59.794;17.616;2022-08-20T01:30:44;14.55;;;9.85;;
56770;SDS011;42641;59.794;17.616;2022-08-20T01:33:10;9.82;;;8.82;;
56770;SDS011;42641;59.794;17.616;2022-08-20T01:35:37;14.35;;;9.77;;
56770;SDS011;42641;59.794;17.616;2022-08-20T01:38:07;14.43;;;9.13;;
56770;SDS011;42641;59.794;17.616;2022-08-20T01:40:43;12.82;;;9.95;;
56770;SDS011;42641;59.794;17.616;2022-08-20T01:43:34;15.10;;;10.30;;
56770;SDS011;42641;59.794;17.616;2022-08-20T01:46:00;17.65;;;10.90;;
56770;SDS011;42641;59.794;17.616;2022-08-20T01:48:27;13.88;;;10.05;;
56770;SDS011;42641;59.794;17.616;2022-08-20T01:50:57;10.88;;;9.77;;
56770;SDS011;42641;59.794;17.616;2022-08-20T01:53:39;17.15;;;9.82;;
56770;SDS011;42641;59.794;17.616;2022-08-20T01:56:10;12.40;;;9.93;;
56770;SDS011;42641;59.794;17.616;2022-08-20T01:58:45;13.45;;;10.35;;
56770;SDS011;42641;59.794;17.616;2022-08-20T02:01:22;14.45;;;10.07;;
56770;SDS011;42641;59.794;17.616;2022-08-20T02:03:53;10.50;;;8.98;;
56770;SDS011;42641;59.794;17.616;2022-08-20T02:06:22;13.20;;;9.75;;
56770;SDS011;42641;59.794;17.616;2022-08-20T02:08:51;10.75;;;9.18;;
56770;SDS011;42641;59.794;17.616;2022-08-20T02:11:22;19.65;;;9.50;;
56770;SDS011;42641;59.794;17.616;2022-08-20T02:13:49;17.20;;;9.48;;
56770;SDS011;42641;59.794;17.616;2022-08-20T02:16:21;11.95;;;9.35;;
56770;SDS011;42641;59.794;17.616;2022-08-20T02:18:55;14.00;;;9.70;;
56770;SDS011;42641;59.794;17.616;2022-08-20T02:21:25;12.32;;;9.98;;
56770;SDS011;42641;59.794;17.616;2022-08-20T02:23:56;15.82;;;9.75;;
56770;SDS011;42641;59.794;17.616;2022-08-20T02:26:23;14.75;;;9.57;;
56770;SDS011;42641;59.794;17.616;2022-08-20T02:28:51;14.80;;;9.18;;
56770;SDS011;42641;59.794;17.616;2022-08-20T02:31:19;11.85;;;9.65;;
56770;SDS011;42641;59.794;17.616;2022-08-20T02:33:46;13.98;;;9.25;;
56770;SDS011;42641;59.794;17.616;2022-08-20T02:36:14;15.35;;;10.02;;
56770;SDS011;42641;59.794;17.616;2022-08-20T02:38:44;13.20;;;8.75;;
56770;SDS011;42641;59.794;17.616;2022-08-20T02:41:11;13.90;;;9.45;;
56770;SDS011;42641;59.794;17.616;2022-08-20T02:43:38;12.40;;;9.15;;
56770;SDS011;42641;59.794;17.616;2022-08-20T02:46:05;15.82;;;9.48;;
56770;SDS011;42641;59.794;17.616;2022-08-20T02:48:32;14.80;;;9.07;;
56770;SDS011;42641;59.794;17.616;2022-08-20T02:51:00;11.93;;;9.02;;
56770;SDS011;42641;59.794;17.616;2022-08-20T02:53:34;14.60;;;9.10;;
56770;SDS011;42641;59.794;17.616;2022-08-20T02:56:03;12.48;;;8.85;;
56770;SDS011;42641;59.794;17.616;2022-08-20T02:58:31;11.95;;;8.98;;
56770;SDS011;42641;59.794;17.616;2022-08-20T03:00:58;14.80;;;9.77;;
56770;SDS011;42641;59.794;17.616;2022-08-20T03:03:24;13.73;;;9.95;;
56770;SDS011;42641;59.794;17.616;2022-08-20T03:05:53;14.20;;;9.05;;
56770;SDS011;42641;59.794;17.616;2022-08-20T03:08:22;9.77;;;8.60;;
56770;SDS011;42641;59.794;17.616;2022-08-20T03:10:50;12.57;;;8.70;;
56770;SDS011;42641;59.794;17.616;2022-08-20T03:13:17;16.55;;;8.65;;
56770;SDS011;42641;59.794;17.616;2022-08-20T03:15:55;13.90;;;9.48;;
56770;SDS011;42641;59.794;17.616;2022-08-20T03:18:24;12.15;;;8.48;;
56770;SDS011;42641;59.794;17.616;2022-08-20T03:20:54;14.68;;;9.48;;
56770;SDS011;42641;59.794;17.616;2022-08-20T03:23:20;13.68;;;8.93;;
56770;SDS011;42641;59.794;17.616;2022-08-20T03:25:47;17.50;;;8.98;;
56770;SDS011;42641;59.794;17.616;2022-08-20T03:28:14;14.18;;;8.63;;
56770;SDS011;42641;59.794;17.616;2022-08-20T03:30:42;13.20;;;8.13;;
56770;SDS011;42641;59.794;17.616;2022-08-20T03:33:09;15.90;;;8.52;;
56770;SDS011;42641;59.794;17.616;2022-08-20T03:35:36;16.73;;;8.45;;
56770;SDS011;42641;59.794;17.616;2022-08-20T03:38:10;15.40;;;9.05;;
56770;SDS011;42641;59.794;17.616;2022-08-20T03:40:38;11.77;;;8.55;;
56770;SDS011;42641;59.794;17.616;2022-08-20T03:43:05;13.90;;;8.55;;
56770;SDS011;42641;59.794;17.616;2022-08-20T03:45:36;12.48;;;8.88;;
56770;SDS011;42641;59.794;17.616;2022-08-20T03:48:05;12.82;;;8.82;;
56770;SDS011;42641;59.794;17.616;2022-08-20T03:50:33;11.52;;;8.40;;
56770;SDS011;42641;59.794;17.616;2022-08-20T03:53:00;15.50;;;8.65;;
56770;SDS011;42641;59.794;17.616;2022-08-20T03:55:28;12.93;;;8.07;;
56770;SDS011;42641;59.794;17.616;2022-08-20T03:57:59;16.42;;;8.88;;
56770;SDS011;42641;59.794;17.616;2022-08-20T04:00:29;14.73;;;8.73;;
56770;SDS011;42641;59.794;17.616;2022-08-20T04:03:03;12.88;;;8.15;;
56770;SDS011;42641;59.794;17.616;2022-08-20T04:05:31;15.13;;;8.32;;
56770;SDS011;42641;59.794;17.616;2022-08-20T04:07:59;13.45;;;8.38;;
56770;SDS011;42641;59.794;17.616;2022-08-20T04:10:27;13.10;;;8.80;;
56770;SDS011;42641;59.794;17.616;2022-08-20T04:12:54;15.10;;;8.32;;
56770;SDS011;42641;59.794;17.616;2022-08-20T04:15:20;11.75;;;8.13;;
56770;SDS011;42641;59.794;17.616;2022-08-20T04:17:49;13.27;;;8.27;;
56770;SDS011;42641;59.794;17.616;2022-08-20T04:20:17;13.70;;;7.72;;
56770;SDS011;42641;59.794;17.616;2022-08-20T04:22:51;18.75;;;8.43;;
56770;SDS011;42641;59.794;17.616;2022-08-20T04:25:19;12.73;;;8.27;;
56770;SDS011;42641;59.794;17.616;2022-08-20T04:27:46;17.27;;;8.32;;
56770;SDS011;42641;59.794;17.616;2022-08-20T04:30:18;12.38;;;8.48;;
56770;SDS011;42641;59.794;17.616;2022-08-20T04:32:47;13.68;;;8.68;;
56770;SDS011;42641;59.794;17.616;2022-08-20T04:35:15;13.13;;;8.38;;
56770;SDS011;42641;59.794;17.616;2022-08-20T04:37:46;18.75;;;8.63;;
56770;SDS011;42641;59.794;17.616;2022-08-20T04:40:15;16.02;;;8.75;;
56770;SDS011;42641;59.794;17.616;2022-08-20T04:43:02;13.07;;;8.30;;
56770;SDS011;42641;59.794;17.616;2022-08-20T04:45:32;16.20;;;8.95;;
56770;SDS011;42641;59.794;17.616;2022-08-20T04:48:02;13.07;;;9.25;;
56770;SDS011;42641;59.794;17.616;2022-08-20T04:50:40;10.98;;;9.23;;
56770;SDS011;42641;59.794;17.616;2022-08-20T04:53:09;13.20;;;9.10;;
56770;SDS011;42641;59.794;17.616;2022-08-20T04:55:38;16.45;;;9.80;;
56770;SDS011;42641;59.794;17.616;2022-08-20T04:58:08;15.18;;;10.15;;
56770;SDS011;42641;59.794;17.616;2022-08-20T05:00:37;17.50;;;10.45;;
56770;SDS011;42641;59.794;17.616;2022-08-20T05:03:04;17.45;;;9.93;;
56770;SDS011;42641;59.794;17.616;2022-08-20T05:05:33;20.42;;;11.35;;
56770;SDS011;42641;59.794;17.616;2022-08-20T05:08:00;16.30;;;10.38;;
56770;SDS011;42641;59.794;17.616;2022-08-20T05:10:27;15.25;;;11.00;;
56770;SDS011;42641;59.794;17.616;2022-08-20T05:12:54;15.23;;;10.27;;
56770;SDS011;42641;59.794;17.616;2022-08-20T05:15:21;17.10;;;11.18;;
56770;SDS011;42641;59.794;17.616;2022-08-20T05:17:52;18.92;;;11.52;;
56770;SDS011;42641;59.794;17.616;2022-08-20T05:20:25;19.08;;;10.90;;
56770;SDS011;42641;59.794;17.616;2022-08-20T05:22:54;17.02;;;11.82;;
56770;SDS011;42641;59.794;17.616;2022-08-20T05:25:20;20.80;;;11.45;;
56770;SDS011;42641;59.794;17.616;2022-08-20T05:27:47;16.80;;;12.23;;
56770;SDS011;42641;59.794;17.616;2022-08-20T05:30:13;18.20;;;12.32;;
56770;SDS011;42641;59.794;17.616;2022-08-20T05:32:40;17.92;;;11.90;;
56770;SDS011;42641;59.794;17.616;2022-08-20T05:35:08;17.60;;;11.52;;
56770;SDS011;42641;59.794;17.616;2022-08-20T05:37:35;16.52;;;10.80;;
56770;SDS011;42641;59.794;17.616;2022-08-20T05:40:10;16.63;;;12.05;;
56770;SDS011;42641;59.794;17.616;2022-08-20T05:42:39;22.13;;;12.30;;
56770;SDS011;42641;59.794;17.616;2022-08-20T05:45:06;18.38;;;12.13;;
56770;SDS011;42641;59.794;17.616;2022-08-20T05:47:36;16.63;;;11.38;;
56770;SDS011;42641;59.794;17.616;2022-08-20T05:50:04;20.42;;;11.73;;
56770;SDS011;42641;59.794;17.616;2022-08-20T05:52:32;15.20;;;11.30;;
56770;SDS011;42641;59.794;17.616;2022-08-20T05:55:00;16.42;;;12.35;;
56770;SDS011;42641;59.794;17.616;2022-08-20T05:57:26;21.35;;;11.82;;
56770;SDS011;42641;59.794;17.616;2022-08-20T05:59:52;17.55;;;12.05;;
56770;SDS011;42641;59.794;17.616;2022-08-20T06:02:19;17.10;;;11.70;;
56770;SDS011;42641;59.794;17.616;2022-08-20T06:05:04;15.32;;;11.73;;
56770;SDS011;42641;59.794;17.616;2022-08-20T06:07:31;14.07;;;10.80;;
56770;SDS011;42641;59.794;17.616;2022-08-20T06:09:57;17.50;;;11.25;;
56770;SDS011;42641;59.794;17.616;2022-08-20T06:12:25;16.58;;;11.77;;
56770;SDS011;42641;59.794;17.616;2022-08-20T06:14:51;14.45;;;10.02;;
56770;SDS011;42641;59.794;17.616;2022-08-20T06:17:18;17.48;;;10.65;;
56770;SDS011;42641;59.794;17.616;2022-08-20T06:19:45;18.65;;;10.70;;
56770;SDS011;42641;59.794;17.616;2022-08-20T06:22:12;16.77;;;11.27;;
56770;SDS011;42641;59.794;17.616;2022-08-20T06:24:40;14.73;;;11.20;;
56770;SDS011;42641;59.794;17.616;2022-08-20T06:27:07;13.90;;;10.70;;
56770;SDS011;42641;59.794;17.616;2022-08-20T06:29:39;13.45;;;12.07;;
56770;SDS011;42641;59.794;17.616;2022-08-20T06:32:05;20.42;;;12.60;;
56770;SDS011;42641;59.794;17.616;2022-08-20T06:34:32;17.65;;;11.68;;
56770;SDS011;42641;59.794;17.616;2022-08-20T06:36:58;19.85;;;11.57;;
56770;SDS011;42641;59.794;17.616;2022-08-20T06:39:25;19.85;;;12.55;;
56770;SDS011;42641;59.794;17.616;2022-08-20T06:41:53;25.23;;;13.52;;
56770;SDS011;42641;59.794;17.616;2022-08-20T06:44:23;17.77;;;13.30;;
56770;SDS011;42641;59.794;17.616;2022-08-20T06:46:49;17.30;;;12.40;;
56770;SDS011;42641;59.794;17.616;2022-08-20T06:49:15;22.17;;;13.15;;
56770;SDS011;42641;59.794;17.616;2022-08-20T06:51:42;19.52;;;11.48;;
56770;SDS011;42641;59.794;17.616;2022-08-20T06:54:09;14.18;;;10.77;;
56770;SDS011;42641;59.794;17.616;2022-08-20T06:56:36;18.08;;;13.05;;
56770;SDS011;42641;59.794;17.616;2022-08-20T06:59:02;16.52;;;11.50;;
56770;SDS011;42641;59.794;17.616;2022-08-20T07:01:29;18.25;;;11.98;;
56770;SDS011;42641;59.794;17.616;2022-08-20T07:03:55;14.90;;;11.95;;
56770;SDS011;42641;59.794;17.616;2022-08-20T07:06:24;16.73;;;11.55;;
56770;SDS011;42641;59.794;17.616;2022-08-20T07:08:51;17.33;;;11.30;;
56770;SDS011;42641;59.794;17.616;2022-08-20T07:11:18;11.93;;;10.57;;
56770;SDS011;42641;59.794;17.616;2022-08-20T07:13:45;13.73;;;11.65;;
56770;SDS011;42641;59.794;17.616;2022-08-20T07:16:14;17.90;;;11.90;;
56770;SDS011;42641;59.794;17.616;2022-08-20T07:18:41;15.25;;;11.95;;
56770;SDS011;42641;59.794;17.616;2022-08-20T07:21:07;17.75;;;12.68;;
56770;SDS011;42641;59.794;17.616;2022-08-20T07:23:34;16.48;;;13.38;;
56770;SDS011;42641;59.794;17.616;2022-08-20T07:26:01;13.18;;;11.82;;
56770;SDS011;42641;59.794;17.616;2022-08-20T07:28:28;13.57;;;11.73;;
56770;SDS011;42641;59.794;17.616;2022-08-20T07:30:56;14.85;;;11.40;;
56770;SDS011;42641;59.794;17.616;2022-08-20T07:33:42;13.80;;;12.23;;
56770;SDS011;42641;59.794;17.616;2022-08-20T07:36:09;16.30;;;11.57;;
56770;SDS011;42641;59.794;17.616;2022-08-20T07:38:36;16.73;;;12.75;;
56770;SDS011;42641;59.794;17.616;2022-08-20T07:41:04;17.42;;;12.27;;
56770;SDS011;42641;59.794;17.616;2022-08-20T07:43:38;20.13;;;13.50;;
56770;SDS011;42641;59.794;17.616;2022-08-20T07:46:04;16.58;;;12.57;;
56770;SDS011;42641;59.794;17.616;2022-08-20T07:48:36;14.18;;;11.88;;
56770;SDS011;42641;59.794;17.616;2022-08-20T07:51:04;19.85;;;13.05;;
56770;SDS011;42641;59.794;17.616;2022-08-20T07:53:32;15.00;;;12.52;;
56770;SDS011;42641;59.794;17.616;2022-08-20T07:56:00;20.80;;;13.73;;
56770;SDS011;42641;59.794;17.616;2022-08-20T07:58:30;19.98;;;13.23;;
56770;SDS011;42641;59.794;17.616;2022-08-20T08:00:57;24.35;;;15.32;;
56770;SDS011;42641;59.794;17.616;2022-08-20T08:03:23;20.70;;;15.65;;
56770;SDS011;42641;59.794;17.616;2022-08-20T08:05:51;19.02;;;14.80;;
56770;SDS011;42641;59.794;17.616;2022-08-20T08:08:19;21.10;;;15.18;;
56770;SDS011;42641;59.794;17.616;2022-08-20T08:10:54;17.67;;;15.05;;
56770;SDS011;42641;59.794;17.616;2022-08-20T08:13:27;16.58;;;14.05;;
56770;SDS011;42641;59.794;17.616;2022-08-20T08:15:57;16.35;;;14.10;;
56770;SDS011;42641;59.794;17.616;2022-08-20T08:18:27;26.08;;;13.98;;
56770;SDS011;42641;59.794;17.616;2022-08-20T08:20:58;17.88;;;13.65;;
56770;SDS011;42641;59.794;17.616;2022-08-20T08:23:25;19.85;;;13.27;;
56770;SDS011;42641;59.794;17.616;2022-08-20T08:25:53;17.67;;;14.13;;
56770;SDS011;42641;59.794;17.616;2022-08-20T08:28:19;20.98;;;14.15;;
56770;SDS011;42641;59.794;17.616;2022-08-20T08:30:47;27.15;;;15.18;;
56770;SDS011;42641;59.794;17.616;2022-08-20T08:33:21;23.50;;;16.15;;
56770;SDS011;42641;59.794;17.616;2022-08-20T08:36:00;18.70;;;14.55;;
56770;SDS011;42641;59.794;17.616;2022-08-20T08:38:30;19.95;;;13.48;;
56770;SDS011;42641;59.794;17.616;2022-08-20T08:41:02;19.48;;;14.32;;
56770;SDS011;42641;59.794;17.616;2022-08-20T08:43:38;19.92;;;13.50;;
56770;SDS011;42641;59.794;17.616;2022-08-20T08:46:06;20.60;;;14.07;;
56770;SDS011;42641;59.794;17.616;2022-08-20T08:48:39;18.90;;;13.77;;
56770;SDS011;42641;59.794;17.616;2022-08-20T08:51:09;22.35;;;15.52;;
56770;SDS011;42641;59.794;17.616;2022-08-20T08:53:39;21.40;;;14.85;;
56770;SDS011;42641;59.794;17.616;2022-08-20T08:56:10;21.85;;;14.13;;
56770;SDS011;42641;59.794;17.616;2022-08-20T08:58:39;20.75;;;14.75;;
56770;SDS011;42641;59.794;17.616;2022-08-20T09:01:10;19.40;;;14.95;;
56770;SDS011;42641;59.794;17.616;2022-08-20T09:03:39;20.70;;;14.93;;
56770;SDS011;42641;59.794;17.616;2022-08-20T09:06:14;19.98;;;13.18;;
56770;SDS011;42641;59.794;17.616;2022-08-20T09:08:55;16.75;;;12.75;;
56770;SDS011;42641;59.794;17.616;2022-08-20T09:11:26;16.92;;;13.07;;
56770;SDS011;42641;59.794;17.616;2022-08-20T09:13:53;18.67;;;13.05;;
56770;SDS011;42641;59.794;17.616;2022-08-20T09:16:20;16.73;;;12.27;;
56770;SDS011;42641;59.794;17.616;2022-08-20T09:18:49;21.10;;;12.95;;
56770;SDS011;42641;59.794;17.616;2022-08-20T09:21:16;17.27;;;14.02;;
56770;SDS011;42641;59.794;17.616;2022-08-20T09:23:43;18.65;;;12.60;;
56770;SDS011;42641;59.794;17.616;2022-08-20T09:26:10;20.20;;;13.80;;
56770;SDS011;42641;59.794;17.616;2022-08-20T09:28:36;17.27;;;12.52;;
56770;SDS011;42641;59.794;17.616;2022-08-20T09:31:03;18.52;;;14.25;;
56770;SDS011;42641;59.794;17.616;2022-08-20T09:33:29;17.08;;;13.40;;
56770;SDS011;42641;59.794;17.616;2022-08-20T09:35:56;21.17;;;15.88;;
56770;SDS011;42641;59.794;17.616;2022-08-20T09:38:22;19.75;;;14.25;;
56770;SDS011;42641;59.794;17.616;2022-08-20T09:40:49;18.92;;;14.48;;
56770;SDS011;42641;59.794;17.616;2022-08-20T09:43:15;16.50;;;12.95;;
56770;SDS011;42641;59.794;17.616;2022-08-20T09:45:42;17.52;;;13.48;;
56770;SDS011;42641;59.794;17.616;2022-08-20T09:48:08;15.65;;;11.75;;
56770;SDS011;42641;59.794;17.616;2022-08-20T09:50:35;16.00;;;12.88;;
56770;SDS011;42641;59.794;17.616;2022-08-20T09:53:03;14.73;;;12.00;;
56770;SDS011;42641;59.794;17.616;2022-08-20T09:55:33;13.57;;;12.15;;
56770;SDS011;42641;59.794;17.616;2022-08-20T09:58:02;13.70;;;10.52;;
56770;SDS011;42641;59.794;17.616;2022-08-20T10:00:34;14.70;;;12.93;;
56770;SDS011;42641;59.794;17.616;2022-08-20T10:03:00;16.23;;;13.40;;
56770;SDS011;42641;59.794;17.616;2022-08-20T10:05:28;20.63;;;14.15;;
56770;SDS011;42641;59.794;17.616;2022-08-20T10:07:54;14.90;;;12.85;;
56770;SDS011;42641;59.794;17.616;2022-08-20T10:10:21;20.23;;;13.93;;
56770;SDS011;42641;59.794;17.616;2022-08-20T10:12:47;19.17;;;15.05;;
56770;SDS011;42641;59.794;17.616;2022-08-20T10:15:14;21.67;;;15.20;;
56770;SDS011;42641;59.794;17.616;2022-08-20T10:17:41;27.40;;;15.85;;
56770;SDS011;42641;59.794;17.616;2022-08-20T10:20:10;24.63;;;15.20;;
56770;SDS011;42641;59.794;17.616;2022-08-20T10:22:37;22.48;;;16.27;;
56770;SDS011;42641;59.794;17.616;2022-08-20T10:25:04;25.98;;;16.85;;
56770;SDS011;42641;59.794;17.616;2022-08-20T10:27:31;26.65;;;17.25;;
56770;SDS011;42641;59.794;17.616;2022-08-20T10:29:58;23.25;;;17.60;;
56770;SDS011;42641;59.794;17.616;2022-08-20T10:32:24;24.23;;;18.05;;
56770;SDS011;42641;59.794;17.616;2022-08-20T10:34:51;27.30;;;17.23;;
56770;SDS011;42641;59.794;17.616;2022-08-20T10:37:18;25.48;;;17.55;;
56770;SDS011;42641;59.794;17.616;2022-08-20T10:39:47;21.65;;;15.27;;
56770;SDS011;42641;59.794;17.616;2022-08-20T10:42:13;25.77;;;16.13;;
56770;SDS011;42641;59.794;17.616;2022-08-20T10:44:39;29.17;;;17.80;;
56770;SDS011;42641;59.794;17.616;2022-08-20T10:47:39;26.90;;;18.88;;
56770;SDS011;42641;59.794;17.616;2022-08-20T10:50:00;31.25;;;20.40;;
56770;SDS011;42641;59.794;17.616;2022-08-20T10:52:29;33.38;;;19.02;;
56770;SDS011;42641;59.794;17.616;2022-08-20T10:54:55;30.55;;;19.25;;
56770;SDS011;42641;59.794;17.616;2022-08-20T10:57:24;30.45;;;20.30;;
56770;SDS011;42641;59.794;17.616;2022-08-20T10:59:53;35.47;;;20.75;;
56770;SDS011;42641;59.794;17.616;2022-08-20T11:02:21;31.55;;;20.90;;
56770;SDS011;42641;59.794;17.616;2022-08-20T11:04:48;32.63;;;20.33;;
56770;SDS011;42641;59.794;17.616;2022-08-20T11:07:29;34.67;;;21.90;;
56770;SDS011;42641;59.794;17.616;2022-08-20T11:09:58;26.65;;;19.60;;
56770;SDS011;42641;59.794;17.616;2022-08-20T11:12:25;29.63;;;20.80;;
56770;SDS011;42641;59.794;17.616;2022-08-20T11:14:51;48.53;;;23.08;;
56770;SDS011;42641;59.794;17.616;2022-08-20T11:17:23;63.85;;;25.63;;
56770;SDS011;42641;59.794;17.616;2022-08-20T11:19:52;46.33;;;26.33;;
56770;SDS011;42641;59.794;17.616;2022-08-20T11:22:19;36.85;;;23.73;;
56770;SDS011;42641;59.794;17.616;2022-08-20T11:24:46;29.67;;;22.65;;
56770;SDS011;42641;59.794;17.616;2022-08-20T11:27:23;28.65;;;20.75;;
56770;SDS011;42641;59.794;17.616;2022-08-20T11:29:55;25.63;;;21.05;;
56770;SDS011;42641;59.794;17.616;2022-08-20T11:32:22;31.30;;;23.15;;
56770;SDS011;42641;59.794;17.616;2022-08-20T11:34:49;39.33;;;23.58;;
56770;SDS011;42641;59.794;17.616;2022-08-20T11:37:17;28.77;;;23.45;;
56770;SDS011;42641;59.794;17.616;2022-08-20T11:39:46;28.77;;;22.65;;
56770;SDS011;42641;59.794;17.616;2022-08-20T11:42:13;30.25;;;22.88;;
56770;SDS011;42641;59.794;17.616;2022-08-20T11:44:40;32.55;;;22.45;;
56770;SDS011;42641;59.794;17.616;2022-08-20T11:47:06;29.48;;;21.83;;
56770;SDS011;42641;59.794;17.616;2022-08-20T11:49:34;32.55;;;22.88;;
56770;SDS011;42641;59.794;17.616;2022-08-20T11:52:02;36.42;;;23.77;;
56770;SDS011;42641;59.794;17.616;2022-08-20T11:54:29;26.90;;;22.60;;
56770;SDS011;42641;59.794;17.616;2022-08-20T11:56:57;26.75;;;20.77;;
56770;SDS011;42641;59.794;17.616;2022-08-20T11:59:24;30.30;;;20.63;;
56770;SDS011;42641;59.794;17.616;2022-08-20T12:01:50;25.85;;;20.90;;
56770;SDS011;42641;59.794;17.616;2022-08-20T12:04:19;24.23;;;18.35;;
56770;SDS011;42641;59.794;17.616;2022-08-20T12:06:45;27.30;;;19.42;;
56770;SDS011;42641;59.794;17.616;2022-08-20T12:09:12;26.85;;;19.08;;
56770;SDS011;42641;59.794;17.616;2022-08-20T12:11:39;22.13;;;18.73;;
56770;SDS011;42641;59.794;17.616;2022-08-20T12:14:05;27.73;;;19.67;;
56770;SDS011;42641;59.794;17.616;2022-08-20T12:16:31;21.85;;;18.50;;
56770;SDS011;42641;59.794;17.616;2022-08-20T12:18:58;21.55;;;18.30;;
56770;SDS011;42641;59.794;17.616;2022-08-20T12:21:24;25.40;;;19.33;;
56770;SDS011;42641;59.794;17.616;2022-08-20T12:23:51;20.65;;;18.20;;
56770;SDS011;42641;59.794;17.616;2022-08-20T12:26:17;27.77;;;20.15;;
56770;SDS011;42641;59.794;17.616;2022-08-20T12:28:43;25.05;;;18.77;;
56770;SDS011;42641;59.794;17.616;2022-08-20T12:31:10;21.08;;;18.67;;
56770;SDS011;42641;59.794;17.616;2022-08-20T12:33:36;23.88;;;19.15;;
56770;SDS011;42641;59.794;17.616;2022-08-20T12:36:03;22.13;;;17.20;;
56770;SDS011;42641;59.794;17.616;2022-08-20T12:38:29;21.35;;;17.48;;
56770;SDS011;42641;59.794;17.616;2022-08-20T12:40:55;22.45;;;15.90;;
56770;SDS011;42641;59.794;17.616;2022-08-20T12:43:22;16.42;;;13.85;;
56770;SDS011;42641;59.794;17.616;2022-08-20T12:45:48;15.57;;;12.68;;
56770;SDS011;42641;59.794;17.616;2022-08-20T12:48:15;15.63;;;12.02;;
56770;SDS011;42641;59.794;17.616;2022-08-20T12:50:41;12.38;;;10.88;;
56770;SDS011;42641;59.794;17.616;2022-08-20T12:53:10;14.10;;;10.85;;
56770;SDS011;42641;59.794;17.616;2022-08-20T12:55:36;14.30;;;10.40;;
56770;SDS011;42641;59.794;17.616;2022-08-20T12:58:03;12.10;;;10.23;;
56770;SDS011;42641;59.794;17.616;2022-08-20T13:00:36;12.20;;;9.65;;
56770;SDS011;42641;59.794;17.616;2022-08-20T13:03:06;11.95;;;9.60;;
56770;SDS011;42641;59.794;17.616;2022-08-20T13:05:33;13.10;;;9.88;;
56770;SDS011;42641;59.794;17.616;2022-08-20T13:08:00;13.82;;;9.18;;
56770;SDS011;42641;59.794;17.616;2022-08-20T13:10:31;9.15;;;8.18;;
56770;SDS011;42641;59.794;17.616;2022-08-20T13:12:59;12.45;;;8.20;;
56770;SDS011;42641;59.794;17.616;2022-08-20T13:15:30;8.15;;;7.32;;
56770;SDS011;42641;59.794;17.616;2022-08-20T13:17:58;8.70;;;7.80;;
56770;SDS011;42641;59.794;17.616;2022-08-20T13:20:26;11.65;;;7.90;;
56770;SDS011;42641;59.794;17.616;2022-08-20T13:22:53;9.52;;;6.97;;
56770;SDS011;42641;59.794;17.616;2022-08-20T13:25:19;8.90;;;7.07;;
56770;SDS011;42641;59.794;17.616;2022-08-20T13:27:47;9.60;;;6.75;;
56770;SDS011;42641;59.794;17.616;2022-08-20T13:30:14;7.10;;;6.50;;
56770;SDS011;42641;59.794;17.616;2022-08-20T13:32:44;7.28;;;6.03;;
56770;SDS011;42641;59.794;17.616;2022-08-20T13:35:10;9.13;;;7.30;;
56770;SDS011;42641;59.794;17.616;2022-08-20T13:37:38;7.93;;;7.13;;
56770;SDS011;42641;59.794;17.616;2022-08-20T13:40:05;10.10;;;6.65;;
56770;SDS011;42641;59.794;17.616;2022-08-20T13:42:33;9.80;;;7.60;;
56770;SDS011;42641;59.794;17.616;2022-08-20T13:45:01;10.07;;;8.10;;
56770;SDS011;42641;59.794;17.616;2022-08-20T13:47:29;10.45;;;8.25;;
56770;SDS011;42641;59.794;17.616;2022-08-20T13:50:00;10.30;;;8.20;;
56770;SDS011;42641;59.794;17.616;2022-08-20T13:52:30;9.63;;;7.93;;
56770;SDS011;42641;59.794;17.616;2022-08-20T13:54:57;12.68;;;8.48;;
56770;SDS011;42641;59.794;17.616;2022-08-20T13:57:24;9.98;;;8.00;;
56770;SDS011;42641;59.794;17.616;2022-08-20T13:59:53;10.30;;;8.32;;
56770;SDS011;42641;59.794;17.616;2022-08-20T14:02:21;9.90;;;8.75;;
56770;SDS011;42641;59.794;17.616;2022-08-20T14:04:49;9.15;;;8.25;;
56770;SDS011;42641;59.794;17.616;2022-08-20T14:07:17;16.23;;;8.43;;
56770;SDS011;42641;59.794;17.616;2022-08-20T14:09:50;13.25;;;8.85;;
56770;SDS011;42641;59.794;17.616;2022-08-20T14:12:21;15.82;;;9.43;;
56770;SDS011;42641;59.794;17.616;2022-08-20T14:14:49;12.65;;;9.30;;
56770;SDS011;42641;59.794;17.616;2022-08-20T14:17:24;11.48;;;8.70;;
56770;SDS011;42641;59.794;17.616;2022-08-20T14:19:58;9.27;;;8.15;;
56770;SDS011;42641;59.794;17.616;2022-08-20T14:22:26;10.00;;;9.00;;
56770;SDS011;42641;59.794;17.616;2022-08-20T14:24:53;12.65;;;8.90;;
56770;SDS011;42641;59.794;17.616;2022-08-20T14:27:21;9.85;;;8.85;;